Time;durP1;ratioP1;P1;durP2;ratioP2;P2;SDS_P1;SDS_P2;PMS_P1;PMS_P2;Temp;Humidity;BMP_temperature;BMP_pressure;BME280_temperature;BME280_humidity;BME280_pressure;Samples;Min_cycle;Max_cycle;Signal;HPM_P1;HPM_P2
2022/05/03 00:00:49;;;;;;;18.05;10.20;;;;;;;8.15;68.83;101830.88;5071275;28;20454;-59
2022/05/03 00:03:22;;;;;;;19.52;10.43;;;;;;;8.11;68.82;101825.88;5072697;28;20040;-58
2022/05/03 00:05:55;;;;;;;19.20;10.20;;;;;;;8.06;68.89;101817.59;5072752;28;20032;-60
2022/05/03 00:08:32;;;;;;;19.47;10.20;;;;;;;8.04;68.67;101822.53;5072675;28;20031;-58
2022/05/03 00:11:11;;;;;;;19.48;9.95;;;;;;;7.93;68.62;101818.88;5072585;28;20033;-58
2022/05/03 00:13:45;;;;;;;18.17;9.55;;;;;;;7.93;69.05;101821.63;5072487;28;20020;-58
2022/05/03 00:16:13;;;;;;;18.90;9.30;;;;;;;7.90;68.98;101822.16;5072544;28;20074;-58
2022/05/03 00:18:40;;;;;;;19.58;9.32;;;;;;;7.90;68.77;101824.91;5071269;28;20027;-58
2022/05/03 00:21:06;;;;;;;18.33;9.57;;;;;;;7.83;68.93;101827.06;5072515;28;20094;-58
2022/05/03 00:23:32;;;;;;;19.00;9.52;;;;;;;7.75;68.88;101813.75;5072497;28;20016;-58
2022/05/03 00:25:57;;;;;;;18.67;9.70;;;;;;;7.65;69.21;101815.34;5072299;28;20028;-58
2022/05/03 00:28:23;;;;;;;18.50;9.07;;;;;;;7.63;68.70;101820.28;5072423;28;20029;-58
2022/05/03 00:30:49;;;;;;;17.45;9.18;;;;;;;7.63;69.16;101816.69;5072687;28;20121;-58
2022/05/03 00:33:16;;;;;;;18.55;9.55;;;;;;;7.60;68.79;101814.50;5072363;28;20051;-58
2022/05/03 00:35:42;;;;;;;18.67;9.25;;;;;;;7.52;69.23;101804.78;5072577;28;20017;-58
2022/05/03 00:38:07;;;;;;;18.98;9.23;;;;;;;7.52;69.03;101807.53;5072826;28;20039;-59
2022/05/03 00:40:33;;;;;;;19.05;9.15;;;;;;;7.53;68.93;101803.69;5072369;28;20024;-58
2022/05/03 00:43:14;;;;;;;18.50;9.30;;;;;;;7.49;69.05;101808.88;5072570;28;20024;-58
2022/05/03 00:45:48;;;;;;;18.27;8.98;;;;;;;7.54;68.45;101801.75;5072389;28;20028;-58
2022/05/03 00:48:33;;;;;;;18.20;8.93;;;;;;;7.51;68.59;101796.78;5072437;28;20067;-58
2022/05/03 00:50:58;;;;;;;17.10;9.25;;;;;;;7.48;68.73;101811.88;5072196;28;20359;-58
2022/05/03 00:53:30;;;;;;;18.10;9.20;;;;;;;7.47;68.79;101805.56;5072475;28;20033;-58
2022/05/03 00:56:07;;;;;;;18.95;9.02;;;;;;;7.46;67.94;101809.41;5072221;28;20351;-58
2022/05/03 00:58:54;;;;;;;17.45;8.88;;;;;;;7.49;68.31;101814.38;5072390;28;20482;-58
2022/05/03 01:01:23;;;;;;;18.45;9.00;;;;;;;7.44;69.03;101816.25;5074964;28;20135;-58
2022/05/03 01:04:10;;;;;;;18.17;9.38;;;;;;;7.44;68.14;101811.56;5075986;28;20046;-58
2022/05/03 01:06:56;;;;;;;18.80;9.35;;;;;;;7.44;68.48;101816.25;5076298;28;20332;-58
2022/05/03 01:09:33;;;;;;;18.05;9.25;;;;;;;7.42;68.07;101812.94;5075974;28;20118;-58
2022/05/03 01:12:36;;;;;;;18.35;9.48;;;;;;;7.38;68.53;101812.63;5075797;28;20059;-58
2022/05/03 01:15:17;;;;;;;16.83;8.68;;;;;;;7.28;68.57;101802.34;5075708;28;20021;-58
2022/05/03 01:18:00;;;;;;;19.13;9.65;;;;;;;7.22;69.24;101808.88;5074398;28;20089;-59
2022/05/03 01:20:30;;;;;;;18.10;8.57;;;;;;;7.13;69.60;101799.44;5075592;28;20536;-58
2022/05/03 01:23:33;;;;;;;17.13;8.75;;;;;;;7.14;69.05;101812.94;5075586;28;20438;-58
2022/05/03 01:26:20;;;;;;;19.20;9.40;;;;;;;7.11;69.10;101818.13;5074206;28;20017;-58
2022/05/03 01:29:18;;;;;;;16.90;8.85;;;;;;;7.00;69.69;101803.44;5075442;28;20399;-58
2022/05/03 01:31:44;;;;;;;17.77;8.98;;;;;;;6.94;70.17;101809.97;5075656;28;20115;-58
2022/05/03 01:34:12;;;;;;;19.15;9.48;;;;;;;6.85;70.99;101813.16;5075456;28;20024;-58
2022/05/03 01:36:49;;;;;;;18.17;9.10;;;;;;;6.89;70.43;101812.66;5075305;28;20078;-58
2022/05/03 01:39:29;;;;;;;18.23;9.20;;;;;;;6.85;70.90;101804.09;5075278;28;20042;-58
2022/05/03 01:42:00;;;;;;;18.95;9.27;;;;;;;6.85;71.23;101807.66;5075311;28;20032;-58
2022/05/03 01:44:50;;;;;;;20.52;9.63;;;;;;;6.84;70.13;101807.94;5075201;28;20028;-58
2022/05/03 01:47:28;;;;;;;19.88;10.38;;;;;;;6.77;71.43;101797.13;5075177;28;20036;-58
2022/05/03 01:50:20;;;;;;;20.70;9.43;;;;;;;6.75;71.38;101804.81;5075555;28;20505;-58
2022/05/03 01:53:19;;;;;;;18.88;9.40;;;;;;;6.61;71.61;101790.63;5075181;28;20029;-58
2022/05/03 01:56:05;;;;;;;18.80;9.70;;;;;;;6.62;71.44;101807.94;5074607;28;20053;-59
2022/05/03 01:59:01;;;;;;;19.10;9.13;;;;;;;6.65;71.25;101802.75;5074965;28;20107;-58
2022/05/03 02:02:05;;;;;;;18.27;8.98;;;;;;;6.64;71.59;101808.53;5074765;28;20409;-58
2022/05/03 02:04:33;;;;;;;18.15;8.88;;;;;;;6.55;71.65;101795.22;5075300;28;20051;-58
2022/05/03 02:07:11;;;;;;;17.92;9.10;;;;;;;6.51;71.78;101793.25;5074765;28;20107;-58
2022/05/03 02:09:59;;;;;;;19.10;9.35;;;;;;;6.50;71.70;101800.66;5074894;28;20473;-59
2022/05/03 02:12:24;;;;;;;17.55;9.27;;;;;;;6.41;72.62;101807.66;5073941;28;20426;-58
2022/05/03 02:14:55;;;;;;;18.80;9.25;;;;;;;6.35;72.93;101798.53;5074585;28;20032;-58
2022/05/03 02:17:52;;;;;;;18.30;9.20;;;;;;;6.31;72.74;101794.63;5074721;28;20070;-58
2022/05/03 02:20:48;;;;;;;18.75;9.18;;;;;;;6.32;72.91;101795.44;5075113;28;20115;-57
2022/05/03 02:23:29;;;;;;;19.25;9.40;;;;;;;6.26;72.56;101791.81;5074659;28;20020;-57
2022/05/03 02:26:31;;;;;;;21.27;10.80;;;;;;;6.27;72.88;101796.22;5074497;28;20394;-57
2022/05/03 02:29:14;;;;;;;19.73;9.50;;;;;;;6.33;72.62;101803.44;5074231;28;20050;-58
2022/05/03 02:31:42;;;;;;;18.58;9.20;;;;;;;6.29;72.95;101799.53;5074226;28;20028;-59
2022/05/03 02:34:21;;;;;;;17.83;9.20;;;;;;;6.28;72.81;101792.38;5074564;28;20028;-58
2022/05/03 02:37:00;;;;;;;18.42;8.77;;;;;;;6.27;72.17;101787.16;5074173;28;20468;-58
2022/05/03 02:39:31;;;;;;;17.52;9.27;;;;;;;6.22;72.42;101794.22;5074019;28;20080;-58
2022/05/03 02:42:01;;;;;;;18.38;9.30;;;;;;;6.16;72.80;101787.00;5074290;28;20016;-58
2022/05/03 02:44:29;;;;;;;18.73;9.10;;;;;;;6.15;73.42;101792.72;5074288;28;20036;-58
2022/05/03 02:46:58;;;;;;;20.05;9.50;;;;;;;6.12;73.02;101791.34;5074376;28;20032;-58
2022/05/03 02:49:57;;;;;;;19.42;9.57;;;;;;;6.09;73.27;101792.69;5073972;28;20036;-58
2022/05/03 02:52:25;;;;;;;19.55;9.88;;;;;;;6.07;73.26;101794.84;5073869;28;20111;-58
2022/05/03 02:55:03;;;;;;;19.35;9.65;;;;;;;6.04;74.06;101789.03;5073533;28;20171;-57
2022/05/03 02:57:38;;;;;;;19.15;9.85;;;;;;;6.04;74.07;101795.38;5073844;28;20032;-58
2022/05/03 03:03:05;;;;;;;20.92;10.15;;;;;;;6.01;74.04;101801.34;5074142;28;20089;-57
2022/05/03 03:05:31;;;;;;;19.70;9.50;;;;;;;5.97;74.19;101797.41;5073754;28;20048;-58
2022/05/03 03:08:03;;;;;;;19.25;9.95;;;;;;;5.97;74.35;101793.84;5073712;28;20376;-58
2022/05/03 03:10:54;;;;;;;19.77;9.93;;;;;;;5.92;74.54;101795.41;5073486;28;20463;-58
2022/05/03 03:13:43;;;;;;;19.50;10.15;;;;;;;5.87;75.30;101794.50;5073466;28;20553;-58
2022/05/03 03:16:13;;;;;;;20.30;9.85;;;;;;;5.87;74.70;101786.25;5073659;28;20024;-58
2022/05/03 03:18:42;;;;;;;18.05;9.57;;;;;;;5.88;74.47;101782.44;5073528;28;20078;-58
2022/05/03 03:21:11;;;;;;;19.35;10.27;;;;;;;5.81;75.37;101787.28;5073480;28;20025;-58
2022/05/03 03:23:39;;;;;;;19.33;10.52;;;;;;;5.86;75.32;101787.34;5072405;28;20029;-58
2022/05/03 03:26:06;;;;;;;19.70;9.93;;;;;;;5.84;75.40;101784.03;5073260;28;20031;-58
2022/05/03 03:28:34;;;;;;;20.88;10.30;;;;;;;5.81;75.02;101801.00;5073242;28;20082;-58
2022/05/03 03:31:02;;;;;;;21.75;11.50;;;;;;;5.74;75.82;101793.78;5073267;28;20031;-58
2022/05/03 03:33:32;;;;;;;21.08;10.20;;;;;;;5.73;75.81;101797.59;5073075;28;20059;-58
2022/05/03 03:36:02;;;;;;;20.00;10.52;;;;;;;5.69;76.46;101795.59;5073107;28;20044;-58
2022/05/03 03:38:36;;;;;;;19.80;10.38;;;;;;;5.69;76.41;101798.34;5073153;28;20039;-58
2022/05/03 03:41:03;;;;;;;19.10;10.48;;;;;;;5.62;76.42;101801.25;5073306;28;20025;-58
2022/05/03 03:43:28;;;;;;;19.13;11.07;;;;;;;5.55;76.88;101792.34;5073094;28;20028;-58
2022/05/03 03:45:53;;;;;;;21.40;11.38;;;;;;;5.52;76.58;101793.69;5073280;28;20031;-58
2022/05/03 03:48:18;;;;;;;20.58;11.15;;;;;;;5.48;76.93;101787.03;5073033;28;20486;-58
2022/05/03 03:50:44;;;;;;;19.30;10.52;;;;;;;5.49;77.14;101783.19;5071745;28;20028;-58
2022/05/03 03:53:10;;;;;;;20.25;11.18;;;;;;;5.47;77.38;101791.69;5072948;28;20032;-58
2022/05/03 03:55:35;;;;;;;20.90;11.07;;;;;;;5.43;77.66;101795.19;5072766;28;20060;-59
2022/05/03 03:58:01;;;;;;;19.80;11.18;;;;;;;5.41;77.43;101789.09;5072506;28;20024;-58
2022/05/03 04:00:26;;;;;;;20.20;11.43;;;;;;;5.43;77.34;101787.78;5072527;28;20020;-57
2022/05/03 04:02:52;;;;;;;20.80;11.30;;;;;;;5.44;76.76;101783.94;5072512;28;20042;-59
2022/05/03 04:05:22;;;;;;;20.52;11.73;;;;;;;5.47;76.88;101788.09;5072472;28;20482;-58
2022/05/03 04:07:49;;;;;;;19.50;10.80;;;;;;;5.44;76.78;101788.59;5072485;28;20538;-59
2022/05/03 04:10:15;;;;;;;19.42;10.93;;;;;;;5.40;77.63;101782.78;5072426;28;20042;-58
2022/05/03 04:12:40;;;;;;;20.15;10.82;;;;;;;5.39;77.47;101788.50;5072635;28;20372;-59
2022/05/03 04:15:07;;;;;;;20.02;11.40;;;;;;;5.42;77.15;101794.34;5072543;28;20115;-59
2022/05/03 04:17:32;;;;;;;23.35;13.18;;;;;;;5.43;76.95;101804.22;5072604;28;20017;-59
2022/05/03 04:19:58;;;;;;;21.30;12.27;;;;;;;5.44;77.12;101799.56;5072288;28;20032;-59
2022/05/03 04:22:28;;;;;;;19.33;10.73;;;;;;;5.44;77.91;101796.81;5072548;28;20517;-59
2022/05/03 04:24:53;;;;;;;21.20;11.98;;;;;;;5.42;77.89;101793.50;5072320;28;20048;-59
2022/05/03 04:27:20;;;;;;;20.52;11.90;;;;;;;5.44;77.94;101797.66;5072400;28;20029;-59
2022/05/03 04:29:46;;;;;;;19.35;11.48;;;;;;;5.48;77.31;101800.75;5072073;28;20028;-59
2022/05/03 04:32:11;;;;;;;20.77;11.77;;;;;;;5.49;77.05;101796.06;5072331;28;20074;-59
2022/05/03 04:34:36;;;;;;;21.52;11.93;;;;;;;5.54;77.27;101799.75;5072551;28;20025;-59
2022/05/03 04:37:01;;;;;;;19.45;11.45;;;;;;;5.58;77.06;101798.19;5076314;28;20120;-59
2022/05/03 04:39:27;;;;;;;20.75;12.32;;;;;;;5.57;77.54;101802.00;5076386;28;20063;-59
2022/05/03 04:41:52;;;;;;;19.58;11.60;;;;;;;5.57;76.59;101796.50;5076154;28;20051;-59
2022/05/03 04:44:18;;;;;;;21.20;12.75;;;;;;;5.59;77.16;101799.84;5076122;28;20106;-58
2022/05/03 04:46:43;;;;;;;20.38;11.77;;;;;;;5.60;77.42;101806.16;5076139;28;20029;-59
2022/05/03 04:49:08;;;;;;;21.60;13.23;;;;;;;5.61;77.26;101805.06;5076296;28;20467;-59
2022/05/03 04:51:33;;;;;;;22.33;12.98;;;;;;;5.54;77.28;101796.19;5074861;28;20032;-59
2022/05/03 04:53:59;;;;;;;21.73;12.98;;;;;;;5.61;77.72;101805.06;5075879;28;20032;-59
2022/05/03 04:56:25;;;;;;;20.45;12.82;;;;;;;5.63;77.72;101801.00;5075833;28;20024;-59
2022/05/03 04:58:55;;;;;;;22.15;13.10;;;;;;;5.69;77.35;101817.56;5075717;28;20025;-56
2022/05/03 05:01:20;;;;;;;23.45;12.65;;;;;;;5.74;77.04;101823.13;5075903;28;20035;-58
2022/05/03 05:03:45;;;;;;;21.13;12.43;;;;;;;5.72;77.38;101822.53;5075703;28;20029;-58
2022/05/03 05:06:11;;;;;;;20.98;12.27;;;;;;;5.69;77.25;101815.63;5075705;28;20036;-58
2022/05/03 05:08:37;;;;;;;21.90;12.85;;;;;;;5.65;78.23;101819.97;5075670;28;20028;-58
2022/05/03 05:11:04;;;;;;;21.42;12.18;;;;;;;5.63;77.77;101816.66;5076004;28;20021;-58
2022/05/03 05:13:29;;;;;;;22.25;12.88;;;;;;;5.63;78.11;101816.66;5075782;28;20090;-58
2022/05/03 05:15:55;;;;;;;21.52;12.15;;;;;;;5.67;77.83;101817.78;5075636;28;20474;-59
2022/05/03 05:18:21;;;;;;;21.42;12.13;;;;;;;5.74;78.31;101820.38;5075432;28;20016;-59
2022/05/03 05:20:46;;;;;;;22.10;12.02;;;;;;;5.82;78.07;101819.97;5075468;28;20044;-58
2022/05/03 05:23:12;;;;;;;22.60;13.25;;;;;;;5.88;77.35;101829.13;5075597;28;20032;-58
2022/05/03 05:25:37;;;;;;;22.65;12.82;;;;;;;5.97;76.70;101835.84;5075633;28;20095;-59
2022/05/03 05:28:03;;;;;;;21.83;13.88;;;;;;;5.97;76.94;101835.03;5075457;28;20110;-58
2022/05/03 05:30:28;;;;;;;22.77;13.40;;;;;;;5.90;78.01;101833.28;5075216;28;20094;-58
2022/05/03 05:32:53;;;;;;;22.65;13.50;;;;;;;5.91;78.17;101845.91;5073025;28;20456;-57
2022/05/03 05:35:19;;;;;;;22.20;12.98;;;;;;;5.94;77.53;101839.94;5074157;28;20025;-58
2022/05/03 05:37:44;;;;;;;22.50;13.50;;;;;;;5.98;77.78;101843.00;5073671;28;20028;-58
2022/05/03 05:40:10;;;;;;;22.77;14.38;;;;;;;6.07;77.67;101852.53;5074832;28;20321;-59
2022/05/03 05:42:35;;;;;;;22.92;13.95;;;;;;;6.10;78.31;101837.44;5074777;28;20032;-58
2022/05/03 05:45:01;;;;;;;23.13;13.93;;;;;;;6.15;77.62;101858.69;5074674;28;20129;-58
2022/05/03 05:47:27;;;;;;;22.83;14.00;;;;;;;6.23;77.87;101842.59;5073829;28;20028;-58
2022/05/03 05:49:52;;;;;;;23.77;14.02;;;;;;;6.37;77.04;101837.59;5076909;28;20489;-58
2022/05/03 05:55:02;;;;;;;21.75;13.27;;;;;;;6.52;76.54;101847.97;5077720;28;20070;-56
2022/05/03 05:57:27;;;;;;;22.40;13.52;;;;;;;6.62;76.16;101843.69;5074463;28;20379;-58
2022/05/03 05:59:52;;;;;;;21.48;13.52;;;;;;;6.67;75.86;101849.25;5074753;28;20482;-58
2022/05/03 06:02:18;;;;;;;22.50;12.65;;;;;;;6.77;75.62;101854.88;5073953;28;20546;-58
2022/05/03 06:04:43;;;;;;;22.13;13.20;;;;;;;6.89;74.80;101849.25;5074659;28;20102;-58
2022/05/03 06:07:08;;;;;;;21.73;12.95;;;;;;;6.99;74.71;101852.09;5080379;28;20459;-57
2022/05/03 06:09:35;;;;;;;22.95;12.93;;;;;;;7.11;73.52;101852.00;5074482;28;20059;-57
2022/05/03 06:12:00;;;;;;;22.00;12.40;;;;;;;7.24;73.30;101852.66;5074671;28;20036;-58
2022/05/03 06:14:25;;;;;;;20.90;11.23;;;;;;;7.36;72.75;101845.09;5072648;28;20024;-58
2022/05/03 06:16:53;;;;;;;21.65;11.60;;;;;;;7.49;71.52;101841.94;5074455;28;20036;-58
2022/05/03 06:19:19;;;;;;;21.80;12.13;;;;;;;7.62;71.31;101843.41;5074233;28;20028;-58
2022/05/03 06:21:45;;;;;;;23.90;12.10;;;;;;;7.74;70.52;101853.44;5074070;28;20094;-58
2022/05/03 06:24:11;;;;;;;21.92;11.32;;;;;;;7.82;69.80;101847.44;5074012;28;20020;-57
2022/05/03 06:26:36;;;;;;;20.23;11.43;;;;;;;7.89;69.46;101844.44;5073984;28;20035;-57
2022/05/03 06:29:03;;;;;;;21.33;11.93;;;;;;;7.97;68.92;101850.31;5077766;28;20027;-58
2022/05/03 06:31:29;;;;;;;20.83;11.48;;;;;;;8.02;68.32;101849.50;5075121;28;20048;-57
2022/05/03 06:33:55;;;;;;;19.95;10.52;;;;;;;8.09;68.55;101850.13;5073790;28;20121;-58
2022/05/03 06:36:20;;;;;;;20.80;11.93;;;;;;;8.24;68.63;101851.34;5074000;28;20021;-58
2022/05/03 06:38:45;;;;;;;21.40;11.27;;;;;;;8.34;67.31;101854.16;5085582;28;20028;-58
2022/05/03 06:41:12;;;;;;;19.42;10.70;;;;;;;8.49;66.85;101849.84;5070489;28;20044;-58
2022/05/03 06:43:37;;;;;;;20.73;10.93;;;;;;;8.62;66.00;101851.28;5074886;28;20024;-58
2022/05/03 06:46:03;;;;;;;19.25;10.35;;;;;;;8.72;64.62;101849.44;5074422;28;20037;-52
2022/05/03 06:48:28;;;;;;;18.95;10.43;;;;;;;8.86;63.88;101851.69;5072994;28;20446;-58
2022/05/03 06:50:53;;;;;;;19.38;9.75;;;;;;;8.99;62.10;101848.44;5072088;28;20499;-58
2022/05/03 06:53:18;;;;;;;19.25;10.00;;;;;;;9.04;60.66;101850.38;5073379;28;20035;-58
2022/05/03 06:55:44;;;;;;;18.50;9.23;;;;;;;9.12;57.94;101847.06;5071400;28;20053;-58
2022/05/03 06:58:09;;;;;;;16.50;8.93;;;;;;;9.23;57.05;101860.91;5073172;28;20051;-58
2022/05/03 07:00:34;;;;;;;17.80;9.10;;;;;;;9.34;55.84;101854.31;5073010;28;20028;-59
2022/05/03 07:03:00;;;;;;;16.85;8.68;;;;;;;9.43;55.51;101860.13;5068547;28;20036;-58
2022/05/03 07:05:25;;;;;;;20.80;10.95;;;;;;;9.54;55.32;101855.47;5053269;28;20062;-58
2022/05/03 07:07:51;;;;;;;18.77;9.25;;;;;;;9.65;55.27;101854.34;5069055;28;20048;-59
2022/05/03 07:10:17;;;;;;;19.45;8.90;;;;;;;9.70;53.52;101857.13;5053633;28;20029;-58
2022/05/03 07:12:42;;;;;;;16.83;8.55;;;;;;;9.76;53.63;101856.00;5053670;28;20090;-58
2022/05/03 07:15:08;;;;;;;17.80;8.95;;;;;;;9.83;52.53;101862.09;5053639;28;20400;-58
2022/05/03 07:23:02;;;;;;;15.57;7.80;;;;;;;10.27;47.98;101857.91;5053586;28;20039;-59
2022/05/03 07:25:27;;;;;;;13.70;7.40;;;;;;;10.42;47.93;101847.97;5053153;28;20111;-59
2022/05/03 07:27:53;;;;;;;13.82;7.00;;;;;;;10.52;45.27;101859.00;5052813;28;20108;-58
2022/05/03 07:30:19;;;;;;;13.68;7.05;;;;;;;10.63;44.96;101853.44;5052960;28;20069;-58
2022/05/03 07:32:45;;;;;;;12.18;6.78;;;;;;;10.73;44.85;101858.91;5052885;28;20029;-58
2022/05/03 07:35:11;;;;;;;13.93;7.28;;;;;;;10.77;44.14;101862.78;5053038;28;20044;-58
2022/05/03 07:37:38;;;;;;;12.85;7.07;;;;;;;10.83;43.48;101869.97;5052999;28;20031;-57
2022/05/03 07:40:05;;;;;;;15.18;7.40;;;;;;;10.93;45.06;101867.16;5053173;28;20025;-58
2022/05/03 07:42:31;;;;;;;11.60;6.80;;;;;;;11.08;44.95;101874.56;5053142;28;20036;-58
2022/05/03 07:44:56;;;;;;;13.55;7.13;;;;;;;11.19;44.62;101868.97;5052939;28;20032;-57
2022/05/03 07:47:21;;;;;;;18.17;7.53;;;;;;;11.24;44.98;101868.97;5052881;28;20021;-58
2022/05/03 07:49:46;;;;;;;17.27;7.50;;;;;;;11.30;44.57;101866.97;5052850;28;20036;-58
2022/05/03 07:52:12;;;;;;;16.50;7.55;;;;;;;11.39;44.45;101870.78;5052935;28;20379;-58
2022/05/03 07:54:41;;;;;;;15.27;7.70;;;;;;;11.44;44.29;101864.38;5052664;28;20060;-59
2022/05/03 07:57:07;;;;;;;14.90;7.50;;;;;;;11.52;43.99;101864.63;5052778;28;20491;-58
2022/05/03 07:59:33;;;;;;;16.10;7.80;;;;;;;11.57;44.18;101863.75;5052627;28;20060;-58
2022/05/03 08:01:59;;;;;;;15.38;7.78;;;;;;;11.65;44.58;101859.53;5052658;28;20057;-59
2022/05/03 08:04:24;;;;;;;17.52;8.20;;;;;;;11.76;45.33;101861.09;5052361;28;20029;-58
2022/05/03 08:06:50;;;;;;;17.40;8.00;;;;;;;11.82;44.90;101862.72;5052449;28;20025;-58
2022/05/03 08:09:15;;;;;;;16.73;8.23;;;;;;;11.93;44.65;101860.69;5052071;28;20479;-59
2022/05/03 08:11:41;;;;;;;16.30;7.93;;;;;;;11.97;45.35;101866.47;5052407;28;20100;-59
2022/05/03 08:14:06;;;;;;;17.77;9.13;;;;;;;12.00;44.62;101869.53;5052464;28;20036;-59
2022/05/03 08:16:32;;;;;;;19.15;8.48;;;;;;;12.01;45.19;101862.88;5052359;28;20029;-59
2022/05/03 08:18:58;;;;;;;16.05;8.15;;;;;;;12.06;45.51;101858.41;5052332;28;20106;-58
2022/05/03 08:21:23;;;;;;;17.55;8.80;;;;;;;12.21;45.34;101865.75;5052478;28;20049;-58
2022/05/03 08:23:48;;;;;;;18.27;9.30;;;;;;;12.36;45.94;101862.81;5052583;28;20092;-58
2022/05/03 08:26:14;;;;;;;18.95;9.13;;;;;;;12.46;45.47;101864.66;5052363;28;20086;-59
2022/05/03 08:28:42;;;;;;;18.58;9.30;;;;;;;12.60;45.37;101865.59;5052282;28;20432;-58
2022/05/03 08:31:08;;;;;;;18.63;9.05;;;;;;;12.70;44.68;101872.16;5052150;28;20383;-59
2022/05/03 08:33:34;;;;;;;18.00;9.20;;;;;;;12.77;45.86;101867.06;5052060;28;20086;-58
2022/05/03 08:35:59;;;;;;;18.38;9.00;;;;;;;12.85;45.33;101862.81;5052090;28;20032;-59
2022/05/03 08:43:54;;;;;;;20.02;10.07;;;;;;;12.94;46.94;101869.38;5052321;28;20063;-59
2022/05/03 08:46:21;;;;;;;19.30;9.63;;;;;;;13.11;47.43;101863.34;5052176;28;20478;-58
2022/05/03 08:48:52;;;;;;;18.80;9.82;;;;;;;13.21;46.04;101867.91;5052183;28;20043;-58
2022/05/03 08:51:20;;;;;;;19.70;10.30;;;;;;;13.20;46.50;101874.59;5052056;28;20033;-59
2022/05/03 08:53:46;;;;;;;20.10;10.32;;;;;;;13.33;47.06;101861.91;5051887;28;20024;-59
2022/05/03 08:56:12;;;;;;;20.38;10.07;;;;;;;13.40;46.91;101867.97;5052168;28;20029;-59
2022/05/03 08:58:38;;;;;;;20.00;11.05;;;;;;;13.49;47.05;101868.94;5051882;28;20029;-60
2022/05/03 09:01:04;;;;;;;19.45;10.80;;;;;;;13.55;46.73;101861.34;5051946;28;20112;-58
2022/05/03 09:03:29;;;;;;;20.90;10.25;;;;;;;13.66;47.38;101873.13;5051869;28;20109;-58
2022/05/03 09:05:54;;;;;;;19.83;10.43;;;;;;;13.70;47.07;101866.66;5052066;28;20057;-58
2022/05/03 09:08:21;;;;;;;21.60;12.02;;;;;;;13.65;47.23;101880.63;5051746;28;20468;-58
2022/05/03 09:10:47;;;;;;;21.83;10.85;;;;;;;13.68;47.59;101866.13;5051892;28;20037;-59
2022/05/03 09:13:22;;;;;;;20.73;10.45;;;;;;;13.87;47.49;101860.56;5051630;28;20033;-58
2022/05/03 09:15:52;;;;;;;19.35;10.95;;;;;;;13.93;47.87;101858.50;5052187;28;20044;-59
2022/05/03 09:18:23;;;;;;;21.05;10.88;;;;;;;14.03;46.99;101865.84;5050431;28;20029;-58
2022/05/03 09:23:51;;;;;;;;;;;;;;;14.29;47.75;101862.59;5056018;28;20513;-58
2022/05/03 09:26:19;;;;;;;20.92;10.38;;;;;;;14.44;46.83;101862.31;5055890;28;19913;-59
2022/05/03 09:29:22;;;;;;;20.35;11.40;;;;;;;14.42;47.13;101866.53;5055372;28;20025;-59
2022/05/03 09:31:48;;;;;;;21.77;11.35;;;;;;;14.44;46.80;101858.69;5054052;28;20126;-59
2022/05/03 09:34:19;;;;;;;20.83;11.20;;;;;;;14.51;47.05;101861.91;5055340;28;20029;-59
2022/05/03 09:37:05;;;;;;;21.92;11.52;;;;;;;14.67;47.20;101859.66;5055235;28;20031;-58
2022/05/03 09:39:45;;;;;;;20.20;11.68;;;;;;;14.72;47.04;101854.00;5055100;28;20067;-58
2022/05/03 09:42:19;;;;;;;20.52;10.50;;;;;;;14.96;47.18;101864.09;5055084;28;20174;-58
2022/05/03 09:44:52;;;;;;;20.77;11.02;;;;;;;15.12;46.60;101850.66;5053772;28;20127;-59
2022/05/03 09:47:19;;;;;;;20.85;10.70;;;;;;;15.11;45.92;101854.56;5055187;28;20025;-58
2022/05/03 09:49:44;;;;;;;19.70;10.68;;;;;;;15.16;46.30;101857.25;5055001;28;20036;-58
2022/05/03 09:52:31;;;;;;;18.90;10.05;;;;;;;15.21;47.07;101856.34;5054923;28;20036;-59
2022/05/03 09:55:03;;;;;;;19.70;10.73;;;;;;;15.22;46.47;101855.16;5054581;28;20125;-58
2022/05/03 09:57:31;;;;;;;19.50;10.52;;;;;;;15.27;46.25;101855.06;5055021;28;20025;-58
2022/05/03 09:59:57;;;;;;;20.13;11.30;;;;;;;15.26;46.24;101850.63;5054997;28;20029;-59
2022/05/03 10:02:25;;;;;;;20.02;10.40;;;;;;;15.29;46.48;101856.41;5054865;28;20488;-59
2022/05/03 10:04:53;;;;;;;19.35;9.85;;;;;;;15.20;46.36;101847.13;5054802;28;20361;-59
2022/05/03 10:07:20;;;;;;;19.13;10.13;;;;;;;15.35;46.63;101847.94;5055082;28;20090;-58
2022/05/03 10:09:47;;;;;;;19.42;10.95;;;;;;;15.33;46.05;101856.59;5054949;28;20044;-58
2022/05/03 10:12:14;;;;;;;19.98;10.40;;;;;;;15.54;46.21;101850.53;5054861;28;20028;-59
2022/05/03 10:14:44;;;;;;;18.88;10.05;;;;;;;15.62;45.90;101860.13;5054858;28;20025;-59
2022/05/03 10:23:02;;;;;;;19.50;10.65;;;;;;;16.15;45.48;101845.41;5053961;28;20589;-59
2022/05/03 10:25:47;;;;;;;19.23;10.65;;;;;;;16.39;45.34;101855.38;5054208;28;20029;-58
2022/05/03 10:28:14;;;;;;;20.90;11.05;;;;;;;16.60;44.23;101841.66;5054083;28;20037;-58
2022/05/03 10:31:05;;;;;;;19.15;10.85;;;;;;;16.94;43.90;101842.94;5054255;28;20067;-58
2022/05/03 10:33:30;;;;;;;20.10;11.35;;;;;;;17.10;43.70;101840.50;5053540;28;20468;-58
2022/05/03 10:35:56;;;;;;;21.07;10.93;;;;;;;17.10;43.50;101839.66;5054255;28;20075;-58
2022/05/03 10:38:37;;;;;;;20.40;11.30;;;;;;;16.87;44.23;101833.34;5054028;28;20051;-59
2022/05/03 10:41:05;;;;;;;19.63;10.25;;;;;;;16.63;44.74;101835.41;5054111;28;20091;-59
2022/05/03 10:43:30;;;;;;;19.45;10.77;;;;;;;16.53;44.94;101827.34;5054159;28;20021;-59
2022/05/03 10:46:08;;;;;;;19.88;10.38;;;;;;;16.57;44.59;101824.72;5054164;28;20029;-59
2022/05/03 10:48:36;;;;;;;20.52;11.68;;;;;;;16.78;44.58;101822.16;5054187;28;20040;-59
2022/05/03 10:51:04;;;;;;;19.85;11.32;;;;;;;17.12;43.81;101818.63;5053748;28;20025;-59
2022/05/03 10:53:35;;;;;;;20.15;10.70;;;;;;;17.38;43.03;101822.59;5053870;28;20029;-59
2022/05/03 10:56:08;;;;;;;20.23;11.05;;;;;;;17.24;42.92;101822.78;5053727;28;20103;-59
2022/05/03 10:58:39;;;;;;;21.97;11.70;;;;;;;17.01;43.49;101811.72;5053947;28;20070;-59
2022/05/03 11:01:21;;;;;;;20.40;11.10;;;;;;;16.79;43.98;101819.03;5053752;28;20025;-59
2022/05/03 11:03:46;;;;;;;19.52;10.60;;;;;;;16.68;43.87;101826.91;5053637;28;20511;-59
2022/05/03 11:06:25;;;;;;;20.27;11.67;;;;;;;16.92;43.80;101820.03;5053652;28;20021;-59
2022/05/03 11:09:05;;;;;;;19.25;10.65;;;;;;;17.48;43.25;101813.03;5054300;28;20111;-60
2022/05/03 11:11:39;;;;;;;19.27;10.00;;;;;;;17.95;41.97;101807.53;5053688;28;20445;-59
2022/05/03 11:14:18;;;;;;;18.27;9.85;;;;;;;18.35;41.18;101800.84;5053501;28;20029;-59
2022/05/03 11:16:50;;;;;;;19.58;9.82;;;;;;;18.61;40.41;101805.50;5054141;28;20032;-60
2022/05/03 11:19:17;;;;;;;22.45;11.73;;;;;;;18.50;40.59;101800.28;5053629;28;20379;-58
2022/05/03 11:21:45;;;;;;;24.77;13.77;;;;;;;18.26;41.57;101808.44;5053265;28;20033;-58
2022/05/03 11:24:27;;;;;;;22.40;13.02;;;;;;;18.04;42.40;101793.56;5053271;28;20082;-57
2022/05/03 11:27:01;;;;;;;22.80;12.52;;;;;;;17.50;43.31;101797.56;5053132;28;20508;-58
2022/05/03 11:29:50;;;;;;;21.95;12.70;;;;;;;17.39;43.96;101801.84;5053419;28;20029;-58
2022/05/03 11:32:25;;;;;;;21.70;12.60;;;;;;;17.33;43.29;101798.41;5048895;28;20044;-59
2022/05/03 11:34:50;;;;;;;21.13;11.85;;;;;;;17.48;42.77;101794.28;5053043;28;20040;-59
2022/05/03 11:37:16;;;;;;;20.05;11.18;;;;;;;17.85;42.92;101796.69;5053179;28;20028;-59
2022/05/03 11:39:41;;;;;;;20.17;10.55;;;;;;;18.08;41.34;101784.16;5053372;28;20049;-58
2022/05/03 11:42:10;;;;;;;20.65;11.55;;;;;;;18.12;41.47;101781.50;5052871;28;20094;-59
2022/05/03 11:44:41;;;;;;;20.60;12.30;;;;;;;18.35;41.57;101773.66;5052161;28;20063;-59
2022/05/03 11:47:09;;;;;;;21.55;13.27;;;;;;;18.54;42.20;101775.22;5053372;28;20083;-58
2022/05/03 11:49:36;;;;;;;22.38;13.88;;;;;;;18.69;42.45;101782.22;5052876;28;20025;-58
2022/05/03 11:57:37;;;;;;;24.30;14.43;;;;;;;17.76;43.51;101763.97;5053294;28;20032;-59
2022/05/03 12:00:06;;;;;;;21.27;13.63;;;;;;;17.97;43.26;101763.28;5052868;28;20076;-59
2022/05/03 12:02:46;;;;;;;23.38;13.13;;;;;;;18.60;43.14;101762.63;5052844;28;20025;-59